createdAt,value
2019-01-16T00:04:54.391Z,44.08
2019-01-16T00:09:59.519Z,44.09
2019-01-16T00:15:20.906Z,44.11
2019-01-16T00:20:28.914Z,44.11
2019-01-16T00:25:36.713Z,44.13
2019-01-16T00:30:50.866Z,44.12
2019-01-16T00:35:58.639Z,44.13
2019-01-16T00:41:15.263Z,44.15
2019-01-16T00:46:20.371Z,44.16
2019-01-16T00:51:25.478Z,44.15
2019-01-16T00:56:39.471Z,44.17
2019-01-16T01:01:44.582Z,44.17
2019-01-16T01:06:49.685Z,44.19
2019-01-16T01:12:12.688Z,44.16
2019-01-16T01:17:32.609Z,44.20
2019-01-16T01:22:40.220Z,44.21
2019-01-16T01:27:57.194Z,44.20
2019-01-16T01:33:02.310Z,44.23
2019-01-16T01:38:25.609Z,44.25
2019-01-16T01:43:30.721Z,44.25
2019-01-16T01:48:40.094Z,44.28
2019-01-16T01:54:01.605Z,44.30
2019-01-16T01:59:12.872Z,44.33
2019-01-16T02:04:29.813Z,44.33
2019-01-16T02:09:40.569Z,44.34
2019-01-16T02:15:02.301Z,44.35
2019-01-16T02:20:19.388Z,44.38
2019-01-16T02:25:24.512Z,44.38
2019-01-16T02:30:32.273Z,44.38
2019-01-16T02:35:37.396Z,44.42
2019-01-16T02:40:42.514Z,44.45
2019-01-16T02:45:50.636Z,44.45
2019-01-16T02:51:07.830Z,44.47
2019-01-16T02:56:29.138Z,44.53
2019-01-16T03:01:34.735Z,44.53
2019-01-16T03:06:42.665Z,44.56
2019-01-16T03:11:47.785Z,44.55
2019-01-16T03:16:52.889Z,44.57
2019-01-16T03:22:16.360Z,44.61
2019-01-16T03:27:36.501Z,44.64
2019-01-16T03:32:47.276Z,44.66
2019-01-16T03:38:08.306Z,44.69
2019-01-16T03:43:16.090Z,44.70
2019-01-16T03:48:21.189Z,44.74
2019-01-16T03:53:35.030Z,44.73
2019-01-16T03:58:49.129Z,44.76
2019-01-16T04:03:54.240Z,44.78
2019-01-16T04:09:02.293Z,44.81
2019-01-16T04:14:23.497Z,44.80
2019-01-16T04:19:40.685Z,44.81
2019-01-16T04:25:01.944Z,44.84
2019-01-16T04:30:25.001Z,44.87
2019-01-16T04:35:46.228Z,44.87
2019-01-16T04:40:51.336Z,44.88
2019-01-16T04:46:01.897Z,44.90
2019-01-16T04:51:09.937Z,44.90
2019-01-16T04:56:31.281Z,44.99
2019-01-16T05:01:41.996Z,44.92
2019-01-16T05:06:59.397Z,44.92
2019-01-16T05:12:07.585Z,44.88
2019-01-16T05:17:21.903Z,44.93
2019-01-16T05:22:27.020Z,44.92
2019-01-16T05:27:32.130Z,44.96
2019-01-16T05:32:49.198Z,44.93
2019-01-16T05:37:54.299Z,44.95
2019-01-16T05:43:15.350Z,44.96
2019-01-16T05:48:20.459Z,44.99
2019-01-16T05:53:25.561Z,44.98
2019-01-16T05:58:39.478Z,44.93
2019-01-16T06:03:47.220Z,44.93
2019-01-16T06:08:55.172Z,44.96
2019-01-16T06:14:03.188Z,44.94
2019-01-16T06:19:24.318Z,44.91
2019-01-16T06:24:46.092Z,44.92
2019-01-16T06:30:07.358Z,44.90
2019-01-16T06:35:12.527Z,44.84
2019-01-16T06:40:20.040Z,44.80
2019-01-16T06:45:30.861Z,44.77
2019-01-16T06:50:53.834Z,44.75
2019-01-16T06:56:01.756Z,44.72
2019-01-16T07:01:15.770Z,44.69
2019-01-16T07:06:26.643Z,44.71
2019-01-16T07:11:37.218Z,44.72
2019-01-16T07:16:58.320Z,44.74
2019-01-16T07:22:09.381Z,44.73
2019-01-16T07:27:17.104Z,44.73
2019-01-16T07:32:34.249Z,44.72
2019-01-16T07:37:39.364Z,44.69
2019-01-16T07:42:47.286Z,44.70
2019-01-16T07:47:58.498Z,44.65
2019-01-16T07:53:15.470Z,44.63
2019-01-16T07:58:23.269Z,44.60
2019-01-16T08:03:44.803Z,44.75
2019-01-16T08:08:52.314Z,35.71
2019-01-16T08:14:15.237Z,34.01
2019-01-16T08:19:20.372Z,33.80
2019-01-16T08:24:43.365Z,33.81
2019-01-16T08:29:48.469Z,34.13
2019-01-16T08:34:56.490Z,34.42
2019-01-16T08:40:13.659Z,35.39
2019-01-16T08:45:24.901Z,36.07
2019-01-16T08:50:46.088Z,37.04
2019-01-16T08:55:53.642Z,38.12
2019-01-16T09:01:15.305Z,38.88
2019-01-16T09:06:26.409Z,39.52
2019-01-16T09:11:46.681Z,39.97
2019-01-16T09:17:04.001Z,40.33
2019-01-16T09:22:09.102Z,40.69
2019-01-16T09:27:26.342Z,40.98
2019-01-16T09:32:43.213Z,41.16
2019-01-16T09:37:50.757Z,41.28
2019-01-16T09:42:58.684Z,41.60
2019-01-16T09:48:10.149Z,42.07
2019-01-16T09:53:24.194Z,42.47
2019-01-16T09:58:44.301Z,42.89
2019-01-16T10:03:49.417Z,43.37
2019-01-16T10:08:54.533Z,43.83
2019-01-16T10:14:02.318Z,43.76
2019-01-16T10:19:10.361Z,43.67
2019-01-16T10:24:30.749Z,43.61
2019-01-16T10:29:44.668Z,43.61
2019-01-16T10:35:05.660Z,43.57
2019-01-16T10:40:14.006Z,43.52
2019-01-16T10:45:28.324Z,43.52
2019-01-16T10:50:51.487Z,43.56
2019-01-16T10:56:08.815Z,43.89
2019-01-16T11:01:19.935Z,44.13
2019-01-16T11:06:30.714Z,43.90
2019-01-16T11:11:51.077Z,43.84
2019-01-16T11:16:59.399Z,44.00
2019-01-16T11:22:13.522Z,44.07
2019-01-16T11:27:24.490Z,44.15
2019-01-16T11:32:46.018Z,44.69
2019-01-16T11:38:07.289Z,45.29
2019-01-16T11:43:28.583Z,45.34
2019-01-16T11:48:42.445Z,45.39
2019-01-16T11:53:47.545Z,45.58
2019-01-16T11:58:52.647Z,45.51
2019-01-16T12:04:03.734Z,45.28
2019-01-16T12:09:17.373Z,45.17
2019-01-16T12:14:38.652Z,45.07
2019-01-16T12:19:46.247Z,44.96
2019-01-16T12:24:57.577Z,44.91
2019-01-16T12:30:05.608Z,44.85
2019-01-16T12:35:10.722Z,44.90
2019-01-16T12:40:24.665Z,44.95
2019-01-16T12:45:32.322Z,44.87
2019-01-16T12:50:37.441Z,44.85
2019-01-16T12:55:44.937Z,44.83
2019-01-16T13:00:55.734Z,44.79
2019-01-16T13:06:15.879Z,44.76
2019-01-16T13:11:21.150Z,44.79
2019-01-16T13:16:26.260Z,44.72
2019-01-16T13:21:39.900Z,33.42
2019-01-16T13:26:44.085Z,32.35
2019-01-16T13:32:04.258Z,32.65
2019-01-16T13:37:12.354Z,37.46
2019-01-16T13:42:23.450Z,37.46
2019-01-16T13:47:34.341Z,38.23
2019-01-16T13:52:39.437Z,39.02
2019-01-16T13:57:44.533Z,39.62
2019-01-16T14:02:52.757Z,40.16
2019-01-16T14:07:57.857Z,40.50
2019-01-16T14:13:08.702Z,40.86
2019-01-16T14:18:16.213Z,41.47
2019-01-16T14:23:27.488Z,41.47
2019-01-16T14:28:44.857Z,41.57
2019-01-16T14:34:02.163Z,41.56
2019-01-16T14:39:12.621Z,41.68
2019-01-16T14:44:20.366Z,41.82
2019-01-16T14:49:25.475Z,41.89
2019-01-16T14:54:33.341Z,41.99
2019-01-16T14:59:56.585Z,42.13
2019-01-16T15:05:04.402Z,42.20
2019-01-16T15:10:26.306Z,42.32
2019-01-16T15:15:34.095Z,42.50
2019-01-16T15:20:47.938Z,42.49
2019-01-16T15:25:53.037Z,42.99
2019-01-16T15:31:15.045Z,43.05
2019-01-16T15:36:20.205Z,43.50
2019-01-16T15:41:25.321Z,43.55
2019-01-16T15:46:35.952Z,43.48
2019-01-16T15:51:46.685Z,43.41
2019-01-16T15:56:51.807Z,43.44
2019-01-16T16:02:02.448Z,43.42
2019-01-16T16:07:10.150Z,43.50
2019-01-16T16:12:15.409Z,43.54
2019-01-16T16:17:20.530Z,43.56
2019-01-16T16:22:25.641Z,43.60
2019-01-16T16:27:39.769Z,43.59
2019-01-16T16:32:53.861Z,43.63
2019-01-16T16:38:05.083Z,43.67
2019-01-16T16:43:28.289Z,43.74
2019-01-16T16:48:49.274Z,43.80
2019-01-16T16:54:10.666Z,43.87
2019-01-16T16:59:18.729Z,43.95
2019-01-16T17:04:26.775Z,44.04
2019-01-16T17:09:31.873Z,44.09
2019-01-16T17:14:36.995Z,44.11
2019-01-16T17:19:42.109Z,44.09
2019-01-16T17:24:49.659Z,44.06
2019-01-16T17:29:54.754Z,44.13
2019-01-16T17:35:15.930Z,44.04
2019-01-16T17:40:21.031Z,44.12
2019-01-16T17:45:42.497Z,44.31
2019-01-16T17:50:59.463Z,44.51
2019-01-16T17:56:13.766Z,44.46
2019-01-16T18:01:18.861Z,44.53
2019-01-16T18:06:29.697Z,44.60
2019-01-16T18:11:40.472Z,44.63
2019-01-16T18:16:57.438Z,44.70
2019-01-16T18:22:20.953Z,44.75
2019-01-16T18:27:29.073Z,44.83
2019-01-16T18:32:50.050Z,44.83
2019-01-16T18:37:57.833Z,44.88
2019-01-16T18:43:17.631Z,44.90
2019-01-16T18:48:37.784Z,44.95
2019-01-16T18:53:52.099Z,44.99
2019-01-16T18:59:00.127Z,45.10
2019-01-16T19:04:17.123Z,45.07
2019-01-16T19:09:22.225Z,45.07
2019-01-16T19:14:30.270Z,45.05
2019-01-16T19:19:35.365Z,45.03
2019-01-16T19:24:46.752Z,45.04
2019-01-16T19:30:08.087Z,45.02
2019-01-16T19:35:13.186Z,45.07
2019-01-16T19:40:34.679Z,45.07
2019-01-16T19:45:57.950Z,45.03
2019-01-16T19:51:09.046Z,45.04
2019-01-16T19:56:22.942Z,45.03
2019-01-16T20:01:33.780Z,45.02
2019-01-16T20:06:44.719Z,44.99
2019-01-16T20:11:55.848Z,45.00
2019-01-16T20:17:00.946Z,45.00
2019-01-16T20:22:18.153Z,45.00
2019-01-16T20:27:25.672Z,44.98
2019-01-16T20:32:48.870Z,44.97
2019-01-16T20:38:08.864Z,44.93
2019-01-16T20:43:32.081Z,44.98
2019-01-16T20:48:43.011Z,44.98
2019-01-16T20:53:51.021Z,44.79
2019-01-16T20:58:56.133Z,44.75
2019-01-16T21:04:07.156Z,44.74
2019-01-16T21:09:21.033Z,44.72
2019-01-16T21:14:38.089Z,44.71
2019-01-16T21:19:45.964Z,44.71
2019-01-16T21:24:51.152Z,44.69
2019-01-16T21:29:59.177Z,44.68
2019-01-16T21:35:10.189Z,44.69
2019-01-16T21:40:31.673Z,44.68
2019-01-16T21:45:49.457Z,44.67
2019-01-16T21:50:56.085Z,44.68
2019-01-16T21:56:17.468Z,44.70
2019-01-16T22:01:46.058Z,44.72
2019-01-16T22:07:09.413Z,44.75
2019-01-16T22:12:26.364Z,44.80
2019-01-16T22:17:49.681Z,44.84
2019-01-16T22:22:57.328Z,44.84
2019-01-16T22:28:11.499Z,44.88
2019-01-16T22:33:28.197Z,44.95
2019-01-16T22:38:38.892Z,44.96
2019-01-16T22:43:52.633Z,45.00
2019-01-16T22:49:06.606Z,45.03
2019-01-16T22:54:14.656Z,45.07
2019-01-16T22:59:19.759Z,45.08
2019-01-16T23:04:24.857Z,45.11
2019-01-16T23:09:47.784Z,45.15
2019-01-16T23:15:01.938Z,45.13
2019-01-16T23:20:27.716Z,45.15
2019-01-16T23:25:45.143Z,45.24
2019-01-16T23:30:52.940Z,45.26
2019-01-16T23:35:58.064Z,45.27
2019-01-16T23:41:03.167Z,45.30
2019-01-16T23:46:14.194Z,45.29
2019-01-16T23:51:31.558Z,45.31
2019-01-16T23:56:51.420Z,45.37
